createdAt,value
2019-05-29T00:01:38.827Z,73.34
2019-05-29T00:06:02.705Z,73.34
2019-05-29T00:10:26.500Z,73.79
2019-05-29T00:14:50.450Z,74.18
2019-05-29T00:19:14.659Z,74.18
2019-05-29T00:23:38.759Z,74.43
2019-05-29T00:28:03.005Z,74.56
2019-05-29T00:32:26.808Z,74.54
2019-05-29T00:36:50.656Z,74.70
2019-05-29T00:41:15.070Z,74.83
2019-05-29T00:45:40.136Z,74.99
2019-05-29T00:50:04.898Z,75.11
2019-05-29T00:54:28.838Z,75.08
2019-05-29T00:58:52.799Z,75.10
2019-05-29T01:03:17.892Z,75.24
2019-05-29T01:07:42.900Z,75.24
2019-05-29T01:12:07.068Z,75.22
2019-05-29T01:16:30.861Z,75.56
2019-05-29T01:20:54.654Z,75.84
2019-05-29T01:25:18.977Z,75.92
2019-05-29T01:29:42.833Z,76.10
2019-05-29T01:34:06.653Z,75.80
2019-05-29T01:38:30.465Z,75.73
2019-05-29T01:42:54.549Z,75.86
2019-05-29T01:47:19.420Z,75.75
2019-05-29T01:51:43.245Z,75.81
2019-05-29T01:56:07.582Z,76.25
2019-05-29T02:00:31.380Z,76.45
2019-05-29T02:04:55.183Z,76.20
2019-05-29T02:09:20.275Z,76.63
2019-05-29T02:13:44.509Z,76.92
2019-05-29T02:18:08.619Z,77.32
2019-05-29T02:22:32.536Z,77.32
2019-05-29T02:26:56.330Z,77.08
2019-05-29T02:31:21.869Z,77.51
2019-05-29T02:35:46.633Z,77.74
2019-05-29T02:40:10.874Z,77.45
2019-05-29T02:44:34.759Z,77.39
2019-05-29T02:48:58.554Z,77.62
2019-05-29T02:53:24.413Z,77.55
2019-05-29T02:57:48.494Z,77.27
2019-05-29T03:02:12.683Z,77.27
2019-05-29T03:06:37.248Z,77.05
2019-05-29T03:11:01.217Z,76.99
2019-05-29T03:15:25.672Z,77.06
2019-05-29T03:19:50.269Z,77.58
2019-05-29T03:24:15.815Z,77.77
2019-05-29T03:28:40.006Z,77.81
2019-05-29T03:33:04.289Z,77.72
2019-05-29T03:37:30.160Z,77.77
2019-05-29T03:41:54.400Z,77.57
2019-05-29T03:46:31.450Z,77.42
2019-05-29T03:50:44.830Z,77.52
2019-05-29T03:55:09.306Z,77.37
2019-05-29T03:59:35.093Z,77.37
2019-05-29T04:03:59.874Z,77.66
2019-05-29T04:08:24.052Z,77.68
2019-05-29T04:12:48.243Z,78.08
2019-05-29T04:17:14.438Z,78.37
2019-05-29T04:21:39.553Z,78.44
2019-05-29T04:26:04.069Z,78.39
2019-05-29T04:30:28.170Z,78.64
2019-05-29T04:34:51.969Z,78.71
2019-05-29T04:39:16.106Z,78.95
2019-05-29T04:43:40.081Z,79.48
2019-05-29T04:48:04.049Z,79.41
2019-05-29T04:52:29.075Z,79.27
2019-05-29T04:56:53.205Z,79.43
2019-05-29T05:01:17.506Z,79.43
2019-05-29T05:05:41.458Z,79.39
2019-05-29T05:10:07.124Z,79.37
2019-05-29T05:14:31.506Z,79.37
2019-05-29T05:18:55.570Z,79.59
2019-05-29T05:23:19.644Z,79.88
2019-05-29T05:27:43.511Z,80.28
2019-05-29T05:32:07.598Z,80.26
2019-05-29T05:36:32.561Z,80.60
2019-05-29T05:40:56.756Z,81.34
2019-05-29T05:45:21.000Z,81.88
2019-05-29T05:49:44.793Z,82.31
2019-05-29T05:54:08.946Z,82.48
2019-05-29T05:58:33.802Z,82.34
2019-05-29T06:02:57.777Z,80.53
2019-05-29T06:07:21.618Z,78.33
2019-05-29T06:11:45.766Z,76.68
2019-05-29T06:16:11.690Z,75.34
2019-05-29T06:20:36.660Z,72.26
2019-05-29T06:25:00.814Z,70.45
2019-05-29T06:29:29.925Z,69.05
2019-05-29T06:33:53.689Z,66.46
2019-05-29T06:38:17.805Z,65.51
2019-05-29T06:42:41.992Z,64.33
2019-05-29T06:47:07.220Z,62.00
2019-05-29T06:51:31.007Z,59.30
2019-05-29T06:55:56.339Z,59.41
2019-05-29T07:00:34.819Z,57.75
2019-05-29T07:04:48.506Z,55.88
2019-05-29T07:09:12.782Z,53.28
2019-05-29T07:13:38.405Z,53.28
2019-05-29T07:18:02.336Z,50.50
2019-05-29T07:22:26.145Z,48.31
2019-05-29T07:26:50.265Z,49.12
2019-05-29T07:31:14.378Z,47.46
2019-05-29T07:35:39.273Z,46.96
2019-05-29T07:40:03.454Z,46.13
2019-05-29T07:44:27.269Z,45.75
2019-05-29T07:48:51.839Z,45.23
2019-05-29T07:53:15.842Z,45.23
2019-05-29T07:57:40.892Z,44.05
2019-05-29T08:02:05.642Z,42.97
2019-05-29T08:06:29.467Z,40.85
2019-05-29T08:10:53.333Z,40.75
2019-05-29T08:15:17.298Z,41.16
2019-05-29T08:19:58.263Z,39.02
2019-05-29T08:24:07.458Z,38.80
2019-05-29T08:28:31.358Z,38.91
2019-05-29T08:32:55.409Z,39.32
2019-05-29T08:37:19.200Z,39.40
2019-05-29T08:41:53.584Z,37.23
2019-05-29T08:46:09.591Z,38.04
2019-05-29T08:50:33.744Z,37.00
2019-05-29T08:54:57.580Z,37.21
2019-05-29T08:59:21.703Z,35.64
2019-05-29T09:03:46.765Z,35.09
2019-05-29T09:08:10.918Z,34.45
2019-05-29T09:12:34.718Z,35.24
2019-05-29T09:16:58.778Z,33.57
2019-05-29T09:21:25.951Z,33.39
2019-05-29T09:25:48.286Z,33.99
2019-05-29T09:30:13.878Z,31.89
2019-05-29T09:34:38.596Z,32.36
2019-05-29T09:39:03.181Z,32.45
2019-05-29T09:43:30.646Z,32.23
2019-05-29T09:47:53.357Z,31.78
2019-05-29T09:52:17.462Z,30.96
2019-05-29T09:56:41.442Z,31.00
2019-05-29T10:01:22.372Z,29.32
2019-05-29T10:05:31.773Z,28.50
2019-05-29T10:09:56.826Z,28.58
2019-05-29T10:14:21.630Z,29.18
2019-05-29T10:18:45.492Z,29.32
2019-05-29T10:23:09.591Z,28.69
2019-05-29T10:27:33.474Z,29.12
2019-05-29T10:31:57.843Z,30.06
2019-05-29T10:36:22.017Z,29.45
2019-05-29T10:40:56.836Z,28.75
2019-05-29T10:45:12.602Z,29.89
2019-05-29T10:49:36.606Z,29.71
2019-05-29T10:54:00.609Z,29.91
2019-05-29T10:58:24.701Z,28.20
2019-05-29T11:02:49.993Z,29.16
2019-05-29T11:07:14.033Z,28.72
2019-05-29T11:11:38.031Z,28.64
2019-05-29T11:16:01.929Z,28.87
2019-05-29T11:20:26.440Z,28.26
2019-05-29T11:24:52.209Z,28.97
2019-05-29T11:29:16.645Z,28.77
2019-05-29T11:33:40.591Z,29.46
2019-05-29T11:38:05.746Z,28.78
2019-05-29T11:42:29.982Z,29.25
2019-05-29T11:46:54.272Z,28.93
2019-05-29T11:51:18.162Z,28.80
2019-05-29T11:55:42.201Z,28.21
2019-05-29T12:00:18.911Z,27.98
2019-05-29T12:04:33.387Z,27.88
2019-05-29T12:08:58.044Z,29.78
2019-05-29T12:13:22.199Z,29.37
2019-05-29T12:17:46.051Z,28.53
2019-05-29T12:22:10.150Z,28.64
2019-05-29T12:26:34.264Z,29.87
2019-05-29T12:30:59.056Z,30.52
2019-05-29T12:35:23.006Z,30.06
2019-05-29T12:39:47.131Z,31.01
2019-05-29T12:44:10.999Z,31.01
2019-05-29T12:48:34.872Z,31.04
2019-05-29T12:52:59.687Z,30.63
2019-05-29T12:57:23.714Z,30.71
2019-05-29T13:01:47.858Z,31.10
2019-05-29T13:06:12.114Z,30.22
2019-05-29T13:10:36.199Z,31.85
2019-05-29T13:15:00.726Z,30.74
2019-05-29T13:19:25.113Z,29.09
2019-05-29T13:23:48.927Z,29.33
2019-05-29T13:28:12.943Z,27.98
2019-05-29T13:32:36.837Z,28.80
2019-05-29T13:37:05.645Z,28.48
2019-05-29T13:41:26.620Z,28.82
2019-05-29T13:45:50.426Z,28.75
2019-05-29T13:50:16.087Z,27.08
2019-05-29T13:54:40.277Z,28.68
2019-05-29T13:59:05.288Z,27.99
2019-05-29T14:03:30.002Z,28.68
2019-05-29T14:07:53.888Z,28.75
2019-05-29T14:12:17.998Z,28.28
2019-05-29T14:16:42.138Z,29.58
2019-05-29T14:21:07.394Z,28.21
2019-05-29T14:25:32.521Z,28.58
2019-05-29T14:29:56.523Z,28.29
2019-05-29T14:34:20.693Z,28.04
2019-05-29T14:38:44.584Z,27.90
2019-05-29T14:43:13.035Z,28.30
2019-05-29T14:47:34.535Z,28.58
2019-05-29T14:51:58.512Z,28.91
2019-05-29T14:56:22.873Z,30.34
2019-05-29T15:00:46.714Z,30.22
2019-05-29T15:05:11.982Z,29.58
2019-05-29T15:09:36.675Z,29.93
2019-05-29T15:14:03.997Z,29.58
2019-05-29T15:18:27.900Z,30.53
2019-05-29T15:22:52.020Z,30.78
2019-05-29T15:27:16.179Z,30.93
2019-05-29T15:31:40.391Z,31.72
2019-05-29T15:36:04.332Z,31.34
2019-05-29T15:40:28.209Z,31.93
2019-05-29T15:44:52.221Z,31.70
2019-05-29T15:49:17.251Z,30.59
2019-05-29T15:53:41.702Z,31.01
2019-05-29T15:58:07.286Z,30.88
2019-05-29T16:02:31.986Z,32.12
2019-05-29T16:06:55.794Z,31.69
2019-05-29T16:11:19.876Z,31.03
2019-05-29T16:15:48.188Z,31.67
2019-05-29T16:20:14.466Z,32.36
2019-05-29T16:24:38.558Z,31.59
2019-05-29T16:29:02.578Z,32.20
2019-05-29T16:33:35.000Z,32.60
2019-05-29T16:37:58.818Z,32.64
2019-05-29T16:42:22.634Z,32.98
2019-05-29T16:46:46.484Z,32.84
2019-05-29T16:55:53.832Z,32.47
2019-05-29T17:04:49.532Z,33.31
2019-05-29T17:09:14.520Z,32.68
2019-05-29T17:13:38.602Z,33.04
2019-05-29T17:18:02.530Z,33.25
2019-05-29T17:22:26.396Z,33.17
2019-05-29T17:26:50.456Z,33.20
2019-05-29T17:31:15.005Z,33.48
2019-05-29T17:35:38.827Z,33.86
2019-05-29T17:40:02.706Z,34.48
2019-05-29T17:44:26.510Z,34.37
2019-05-29T17:48:50.422Z,34.13
2019-05-29T17:53:15.737Z,34.72
2019-05-29T17:57:40.560Z,35.15
2019-05-29T18:02:06.068Z,35.57
2019-05-29T18:06:29.856Z,35.62
2019-05-29T18:15:25.831Z,36.35
2019-05-29T18:19:49.740Z,36.40
2019-05-29T18:24:13.538Z,36.79
2019-05-29T18:28:37.334Z,37.52
2019-05-29T18:33:01.339Z,38.40
2019-05-29T18:37:26.222Z,38.40
2019-05-29T18:41:50.087Z,38.46
2019-05-29T18:46:14.207Z,38.46
2019-05-29T18:50:38.242Z,38.65
2019-05-29T18:55:02.050Z,39.37
2019-05-29T18:59:27.441Z,39.81
2019-05-29T19:03:51.649Z,40.11
2019-05-29T19:08:15.652Z,40.52
2019-05-29T19:12:39.607Z,40.46
2019-05-29T19:17:03.431Z,40.87
2019-05-29T19:21:28.418Z,41.17
2019-05-29T19:25:52.426Z,41.17
2019-05-29T19:30:16.793Z,41.93
2019-05-29T19:34:40.633Z,42.88
2019-05-29T19:39:07.610Z,42.88
2019-05-29T19:43:32.362Z,43.18
2019-05-29T19:47:56.593Z,43.54
2019-05-29T19:52:20.800Z,43.86
2019-05-29T19:56:44.618Z,44.17
2019-05-29T20:01:08.642Z,44.72
2019-05-29T20:05:32.814Z,45.07
2019-05-29T20:09:56.700Z,45.87
2019-05-29T20:14:21.062Z,46.10
2019-05-29T20:18:45.152Z,46.05
2019-05-29T20:23:09.333Z,46.05
2019-05-29T20:27:34.159Z,46.17
2019-05-29T20:31:57.979Z,46.27
2019-05-29T20:36:22.139Z,46.55
2019-05-29T20:40:46.260Z,46.73
2019-05-29T20:45:11.018Z,47.25
2019-05-29T20:49:35.968Z,47.65
2019-05-29T20:53:59.812Z,48.13
2019-05-29T20:58:25.033Z,49.01
2019-05-29T21:02:49.941Z,49.29
2019-05-29T21:07:13.754Z,49.28
2019-05-29T21:11:37.663Z,49.76
2019-05-29T21:16:01.660Z,50.06
2019-05-29T21:20:29.053Z,50.06
2019-05-29T21:25:02.881Z,51.21
2019-05-29T21:29:16.955Z,51.21
2019-05-29T21:33:44.098Z,51.10
2019-05-29T21:38:06.584Z,51.13
2019-05-29T21:42:30.394Z,51.29
2019-05-29T21:46:54.418Z,51.84
2019-05-29T21:51:18.517Z,51.84
2019-05-29T21:55:43.582Z,51.78
2019-05-29T22:00:10.002Z,51.99
2019-05-29T22:04:35.458Z,52.25
2019-05-29T22:08:59.575Z,52.76
2019-05-29T22:13:24.323Z,52.76
2019-05-29T22:17:48.329Z,53.18
2019-05-29T22:22:13.476Z,53.18
2019-05-29T22:26:37.736Z,53.46
2019-05-29T22:31:01.720Z,53.46
2019-05-29T22:35:26.631Z,53.72
2019-05-29T22:39:51.475Z,53.97
2019-05-29T22:44:15.352Z,54.12
2019-05-29T22:48:39.440Z,54.30
2019-05-29T22:53:03.336Z,54.36
2019-05-29T22:57:27.558Z,54.49
2019-05-29T23:01:52.052Z,54.49
2019-05-29T23:06:15.914Z,54.39
2019-05-29T23:10:39.803Z,54.42
2019-05-29T23:15:03.767Z,54.53
2019-05-29T23:19:27.814Z,54.49
2019-05-29T23:23:54.113Z,54.48
2019-05-29T23:28:18.155Z,54.47
2019-05-29T23:32:42.202Z,54.47
2019-05-29T23:37:06.298Z,54.58
2019-05-29T23:41:30.329Z,54.99
2019-05-29T23:45:55.325Z,54.99
2019-05-29T23:50:19.287Z,55.03
2019-05-29T23:54:43.248Z,55.15
2019-05-29T23:59:07.341Z,55.11
